Time;durP1;ratioP1;P1;durP2;ratioP2;P2;SDS_P1;SDS_P2;PMS_P1;PMS_P2;Temp;Humidity;BMP_temperature;BMP_pressure;BME280_temperature;BME280_humidity;BME280_pressure;Samples;Min_cycle;Max_cycle;Signal;HPM_P1;HPM_P2
2024/01/19 00:00:44;;;;;;;23.98;13.88;;;;;;;;;;5036623;28;20033;-82
2024/01/19 00:03:09;;;;;;;27.30;14.70;;;;;;;;;;5022787;28;20055;-82
2024/01/19 00:05:35;;;;;;;30.45;14.68;;;;;;;;;;5024141;28;20039;-82
2024/01/19 00:08:01;;;;;;;30.80;15.07;;;;;;;;;;5035072;28;20029;-82
2024/01/19 00:10:27;;;;;;;28.55;14.13;;;;;;;;;;5037133;28;20084;-82
2024/01/19 00:12:52;;;;;;;28.90;13.77;;;;;;;;;;5036714;28;20167;-82
2024/01/19 00:15:17;;;;;;;23.67;13.25;;;;;;;;;;5034161;28;20042;-83
2024/01/19 00:17:43;;;;;;;24.65;13.73;;;;;;;;;;5027684;28;20989;-82
2024/01/19 00:20:09;;;;;;;27.00;14.48;;;;;;;;;;5021745;28;20029;-83
2024/01/19 00:22:35;;;;;;;27.27;14.38;;;;;;;;;;5042660;28;20060;-82
2024/01/19 00:25:00;;;;;;;25.35;14.52;;;;;;;;;;5043113;28;20068;-83
2024/01/19 00:27:25;;;;;;;24.70;13.27;;;;;;;;;;5034592;28;20079;-82
2024/01/19 00:29:51;;;;;;;27.20;13.30;;;;;;;;;;5035490;28;20042;-82
2024/01/19 00:32:16;;;;;;;24.95;13.85;;;;;;;;;;5035324;28;20040;-82
2024/01/19 00:34:42;;;;;;;28.33;14.65;;;;;;;;;;5036753;28;20111;-82
2024/01/19 00:37:07;;;;;;;26.85;13.50;;;;;;;;;;5028121;28;20048;-82
2024/01/19 00:39:33;;;;;;;24.80;13.32;;;;;;;;;;5019593;28;20083;-81
2024/01/19 00:41:58;;;;;;;28.27;13.73;;;;;;;;;;5038181;28;20830;-83
2024/01/19 00:44:24;;;;;;;25.48;13.50;;;;;;;;;;5027967;28;20428;-84
2024/01/19 00:46:50;;;;;;;26.63;13.52;;;;;;;;;;5021860;28;20044;-83
2024/01/19 00:49:16;;;;;;;27.75;14.13;;;;;;;;;;5034969;28;20099;-83
2024/01/19 00:51:41;;;;;;;27.55;13.57;;;;;;;;;;5035588;28;20436;-83
2024/01/19 00:54:07;;;;;;;23.23;13.40;;;;;;;;;;5024831;28;20040;-82
2024/01/19 00:56:33;;;;;;;28.35;13.85;;;;;;;;;;5032415;28;20029;-83
2024/01/19 00:58:58;;;;;;;36.40;13.82;;;;;;;;;;5044015;28;20432;-83
2024/01/19 01:01:24;;;;;;;25.45;13.48;;;;;;;;;;5038179;28;20044;-82
2024/01/19 01:03:49;;;;;;;24.98;13.60;;;;;;;;;;5035438;28;20363;-83
2024/01/19 01:06:15;;;;;;;28.55;14.40;;;;;;;;;;5038680;28;20389;-83
2024/01/19 01:08:40;;;;;;;28.08;15.15;;;;;;;;;;5036489;28;20033;-83
2024/01/19 01:11:05;;;;;;;31.58;13.90;;;;;;;;;;5026214;28;20060;-83
2024/01/19 01:13:32;;;;;;;26.65;14.23;;;;;;;;;;5034315;28;20232;-83
2024/01/19 01:15:57;;;;;;;30.17;14.07;;;;;;;;;;5020254;28;20029;-82
2024/01/19 01:18:23;;;;;;;27.42;13.60;;;;;;;;;;5035987;28;20961;-82
2024/01/19 01:20:51;;;;;;;27.50;14.65;;;;;;;;;;5032915;28;20030;-82
2024/01/19 01:23:17;;;;;;;26.30;12.75;;;;;;;;;;5036012;28;20037;-82
2024/01/19 01:25:42;;;;;;;27.75;13.40;;;;;;;;;;5037151;28;20534;-82
2024/01/19 01:28:31;;;;;;;22.02;12.07;;;;;;;;;;5034991;28;20032;-82
2024/01/19 01:30:57;;;;;;;25.73;13.05;;;;;;;;;;4939636;28;20655;-82
2024/01/19 01:33:22;;;;;;;26.58;12.82;;;;;;;;;;4949800;28;20051;-83
2024/01/19 01:35:47;;;;;;;26.65;13.10;;;;;;;;;;4958440;28;20049;-82
2024/01/19 01:38:13;;;;;;;27.85;12.88;;;;;;;;;;4944547;28;20081;-82
2024/01/19 01:40:38;;;;;;;24.42;12.75;;;;;;;;;;4942225;28;20046;-82
2024/01/19 01:43:06;;;;;;;27.40;12.70;;;;;;;;;;4928766;28;20435;-82
2024/01/19 01:45:31;;;;;;;;;;;;;;;;;;4943975;28;20042;-83
2024/01/19 01:47:58;;;;;;;23.73;12.40;;;;;;;;;;4924837;28;19996;-82
2024/01/19 01:50:23;;;;;;;28.17;13.18;;;;;;;;;;4942505;28;20051;-82
2024/01/19 01:52:50;;;;;;;24.25;12.05;;;;;;;;;;4944256;28;20542;-82
2024/01/19 01:55:16;;;;;;;23.42;12.40;;;;;;;;;;4932070;28;20608;-82
2024/01/19 01:57:41;;;;;;;28.10;12.50;;;;;;;;;;4931838;28;20042;-82
2024/01/19 02:00:11;;;;;;;27.02;11.68;;;;;;;;;;4939005;28;20081;-82
2024/01/19 02:02:37;;;;;;;25.40;12.27;;;;;;;;;;4953224;28;20035;-81
2024/01/19 02:05:02;;;;;;;21.83;11.73;;;;;;;;;;4956274;28;20531;-82
2024/01/19 02:07:28;;;;;;;21.60;11.35;;;;;;;;;;4982893;28;20128;-81
2024/01/19 02:09:53;;;;;;;21.92;10.75;;;;;;;;;;5038313;28;20048;-82
2024/01/19 02:12:21;;;;;;;25.83;11.73;;;;;;;;;;5036767;28;20029;-82
2024/01/19 02:14:47;;;;;;;21.92;11.85;;;;;;;;;;5031233;28;20806;-82
2024/01/19 02:17:12;;;;;;;18.52;10.82;;;;;;;;;;5019084;28;20021;-83
2024/01/19 02:19:39;;;;;;;22.95;10.60;;;;;;;;;;5022041;28;20033;-81
2024/01/19 02:22:04;;;;;;;25.35;11.27;;;;;;;;;;5039752;28;20388;-82
2024/01/19 02:24:30;;;;;;;22.13;10.27;;;;;;;;;;5039981;28;20033;-82
2024/01/19 02:26:56;;;;;;;18.20;10.45;;;;;;;;;;5037912;28;20030;-82
2024/01/19 02:29:21;;;;;;;19.17;9.52;;;;;;;;;;5036282;28;20064;-82
2024/01/19 02:31:47;;;;;;;19.45;10.18;;;;;;;;;;5035913;28;20400;-82
2024/01/19 02:34:12;;;;;;;19.75;9.48;;;;;;;;;;5039710;28;20047;-82
2024/01/19 02:36:37;;;;;;;21.42;9.93;;;;;;;;;;5042917;28;20561;-82
2024/01/19 02:39:05;;;;;;;17.38;9.63;;;;;;;;;;5036967;28;20033;-82
2024/01/19 02:41:31;;;;;;;18.63;9.15;;;;;;;;;;5023676;28;20029;-82
2024/01/19 02:43:56;;;;;;;20.80;9.77;;;;;;;;;;5040413;28;20044;-83
2024/01/19 02:46:22;;;;;;;16.73;9.18;;;;;;;;;;5038160;28;20033;-82
2024/01/19 02:48:47;;;;;;;19.92;8.77;;;;;;;;;;5036740;28;20049;-81
2024/01/19 02:51:13;;;;;;;17.20;8.77;;;;;;;;;;5038575;28;20047;-82
2024/01/19 02:53:39;;;;;;;15.40;8.50;;;;;;;;;;5039707;28;20374;-82
2024/01/19 02:56:04;;;;;;;19.67;8.75;;;;;;;;;;5028692;28;20030;-82
2024/01/19 02:58:30;;;;;;;20.13;8.52;;;;;;;;;;5039506;28;20048;-83
2024/01/19 03:00:55;;;;;;;15.25;7.65;;;;;;;;;;5038840;28;20040;-82
2024/01/19 03:03:21;;;;;;;20.15;7.65;;;;;;;;;;5027748;28;20049;-82
2024/01/19 03:05:49;;;;;;;19.48;7.63;;;;;;;;;;5035995;28;20087;-82
2024/01/19 03:08:14;;;;;;;16.13;7.60;;;;;;;;;;5048186;28;20029;-83
2024/01/19 03:10:39;;;;;;;16.45;7.18;;;;;;;;;;5038522;28;20041;-82
2024/01/19 03:13:05;;;;;;;17.15;7.80;;;;;;;;;;5025637;28;20388;-83
2024/01/19 03:15:30;;;;;;;13.77;7.47;;;;;;;;;;5019564;28;20048;-82
2024/01/19 03:17:55;;;;;;;15.95;8.20;;;;;;;;;;5036401;28;20040;-82
2024/01/19 03:20:21;;;;;;;21.85;8.85;;;;;;;;;;5035610;28;20500;-83
2024/01/19 03:22:46;;;;;;;14.27;7.93;;;;;;;;;;5020106;28;20033;-82
2024/01/19 03:25:12;;;;;;;14.82;7.53;;;;;;;;;;5042040;28;20041;-82
2024/01/19 03:27:37;;;;;;;14.52;7.50;;;;;;;;;;5042707;28;20037;-82
2024/01/19 03:30:04;;;;;;;13.70;6.70;;;;;;;;;;5043653;28;20124;-82
2024/01/19 03:32:29;;;;;;;14.02;7.40;;;;;;;;;;5038291;28;20511;-82
2024/01/19 03:34:54;;;;;;;17.20;7.57;;;;;;;;;;5037899;28;20033;-82
2024/01/19 03:37:20;;;;;;;12.80;7.13;;;;;;;;;;5038593;28;20029;-83
2024/01/19 03:39:45;;;;;;;14.77;7.55;;;;;;;;;;5024503;28;20086;-83
2024/01/19 03:42:11;;;;;;;15.63;6.80;;;;;;;;;;5021925;28;20492;-82
2024/01/19 03:44:56;;;;;;;15.73;6.72;;;;;;;;;;5044682;28;20084;-82
2024/01/19 03:47:22;;;;;;;13.45;6.32;;;;;;;;;;4968271;28;20089;-82
2024/01/19 03:49:47;;;;;;;12.85;6.50;;;;;;;;;;4946765;28;20047;-82
2024/01/19 03:52:13;;;;;;;14.80;5.85;;;;;;;;;;4952660;28;20034;-83
2024/01/19 03:54:38;;;;;;;12.80;5.57;;;;;;;;;;4952682;28;20130;-83
2024/01/19 03:57:06;;;;;;;13.02;5.75;;;;;;;;;;4952992;28;20122;-83
2024/01/19 03:59:31;;;;;;;14.85;5.95;;;;;;;;;;4937823;28;20038;-82
2024/01/19 04:01:57;;;;;;;11.65;5.53;;;;;;;;;;4936222;28;20042;-82
2024/01/19 04:04:23;;;;;;;15.93;5.53;;;;;;;;;;4951528;28;20086;-82
2024/01/19 04:06:49;;;;;;;13.98;5.50;;;;;;;;;;4967669;28;20126;-82
2024/01/19 04:09:17;;;;;;;10.18;5.07;;;;;;;;;;4938065;28;20137;-81
2024/01/19 04:11:43;;;;;;;11.13;4.68;;;;;;;;;;4935175;28;20038;-82
2024/01/19 04:14:08;;;;;;;12.90;4.72;;;;;;;;;;4952842;28;20390;-82
2024/01/19 04:16:34;;;;;;;13.48;5.07;;;;;;;;;;4936699;28;20045;-81
2024/01/19 04:18:59;;;;;;;12.35;5.43;;;;;;;;;;4937292;28;20085;-82
2024/01/19 04:21:24;;;;;;;12.77;5.10;;;;;;;;;;4965989;28;20074;-81
2024/01/19 04:23:50;;;;;;;7.72;4.45;;;;;;;;;;4962161;28;20075;-82
2024/01/19 04:26:15;;;;;;;9.10;4.25;;;;;;;;;;5038246;28;20037;-82
2024/01/19 04:28:41;;;;;;;10.30;4.10;;;;;;;;;;5041244;28;20086;-82
2024/01/19 04:31:06;;;;;;;8.82;3.85;;;;;;;;;;5036511;28;20040;-82
2024/01/19 04:33:32;;;;;;;8.50;3.78;;;;;;;;;;5037278;28;20064;-82
2024/01/19 04:35:58;;;;;;;12.63;4.45;;;;;;;;;;5034384;28;20117;-81
2024/01/19 04:38:23;;;;;;;11.45;4.22;;;;;;;;;;5035966;28;20112;-81
2024/01/19 04:40:48;;;;;;;10.02;3.95;;;;;;;;;;5026199;28;20102;-81
2024/01/19 04:43:14;;;;;;;9.43;3.50;;;;;;;;;;5037967;28;20037;-81
2024/01/19 04:45:39;;;;;;;15.20;4.60;;;;;;;;;;5022762;28;20473;-82
2024/01/19 04:48:05;;;;;;;11.43;3.90;;;;;;;;;;5035933;28;20041;-81
2024/01/19 04:50:30;;;;;;;10.90;3.85;;;;;;;;;;5035077;28;20155;-81
2024/01/19 04:52:55;;;;;;;9.55;3.35;;;;;;;;;;5026146;28;20385;-81
2024/01/19 04:55:21;;;;;;;9.02;3.97;;;;;;;;;;5035837;28;20034;-81
2024/01/19 04:57:46;;;;;;;12.35;3.58;;;;;;;;;;5020932;28;20084;-81
2024/01/19 05:00:15;;;;;;;9.95;3.30;;;;;;;;;;5036581;28;20452;-81
2024/01/19 05:02:40;;;;;;;9.00;3.28;;;;;;;;;;5024695;28;20045;-81
2024/01/19 05:05:06;;;;;;;8.27;2.85;;;;;;;;;;5033813;28;20400;-81
2024/01/19 05:07:31;;;;;;;6.65;3.08;;;;;;;;;;5039404;28;20435;-78
2024/01/19 05:09:57;;;;;;;11.40;3.10;;;;;;;;;;5034847;28;20117;-78
2024/01/19 05:12:23;;;;;;;5.10;2.35;;;;;;;;;;5033731;28;20033;-82
2024/01/19 05:14:49;;;;;;;6.57;2.80;;;;;;;;;;5036439;28;20433;-82
2024/01/19 05:17:14;;;;;;;8.27;3.20;;;;;;;;;;5035940;28;20037;-81
2024/01/19 05:19:39;;;;;;;6.85;2.90;;;;;;;;;;5035103;28;20086;-82
2024/01/19 05:22:05;;;;;;;12.20;3.10;;;;;;;;;;5020231;28;20040;-82
2024/01/19 05:24:50;;;;;;;9.15;3.00;;;;;;;;;;5023331;28;20393;-81
2024/01/19 05:27:16;;;;;;;6.85;2.60;;;;;;;;;;4954643;28;20069;-83
2024/01/19 05:29:41;;;;;;;6.65;2.53;;;;;;;;;;4969060;28;20079;-84
2024/01/19 05:32:08;;;;;;;5.15;2.10;;;;;;;;;;4951329;28;20114;-83
2024/01/19 05:34:33;;;;;;;7.93;3.20;;;;;;;;;;4984180;28;20050;-83
2024/01/19 05:36:59;;;;;;;7.60;2.47;;;;;;;;;;4967177;28;20292;-84
2024/01/19 05:39:24;;;;;;;5.88;2.35;;;;;;;;;;4949853;28;20087;-80
2024/01/19 05:41:50;;;;;;;5.85;2.17;;;;;;;;;;4983616;28;20042;-81
2024/01/19 05:44:15;;;;;;;5.95;2.20;;;;;;;;;;4967633;28;20097;-79
2024/01/19 05:46:40;;;;;;;5.63;2.08;;;;;;;;;;4967296;28;20461;-80
2024/01/19 05:49:06;;;;;;;6.70;2.63;;;;;;;;;;4967680;28;20104;-79
2024/01/19 05:51:31;;;;;;;6.47;2.38;;;;;;;;;;4983143;28;20094;-84
2024/01/19 05:53:58;;;;;;;5.22;2.20;;;;;;;;;;4967904;28;20049;-84
2024/01/19 05:56:23;;;;;;;9.10;2.38;;;;;;;;;;4966844;28;20045;-82
2024/01/19 05:58:49;;;;;;;8.27;2.35;;;;;;;;;;4969043;28;20746;-83
2024/01/19 06:01:16;;;;;;;5.20;2.05;;;;;;;;;;4967943;28;20141;-82
2024/01/19 06:03:41;;;;;;;7.60;2.92;;;;;;;;;;4998364;28;20044;-81
2024/01/19 06:06:06;;;;;;;6.53;2.47;;;;;;;;;;5037640;28;20076;-82
2024/01/19 06:08:32;;;;;;;6.43;2.38;;;;;;;;;;5033223;28;20065;-82
2024/01/19 06:10:58;;;;;;;9.63;2.40;;;;;;;;;;5031467;28;20431;-82
2024/01/19 06:13:23;;;;;;;4.70;2.35;;;;;;;;;;5032679;28;20485;-82
2024/01/19 06:15:49;;;;;;;6.20;2.35;;;;;;;;;;5009817;28;20031;-82
2024/01/19 06:18:14;;;;;;;7.65;2.10;;;;;;;;;;5035021;28;20116;-82
2024/01/19 06:20:43;;;;;;;8.98;2.65;;;;;;;;;;5032978;28;20034;-82
2024/01/19 06:23:09;;;;;;;5.68;2.47;;;;;;;;;;5035736;28;20481;-82
2024/01/19 06:25:35;;;;;;;5.53;2.58;;;;;;;;;;5033067;28;20130;-82
2024/01/19 06:28:01;;;;;;;6.63;2.30;;;;;;;;;;5034602;28;20037;-83
2024/01/19 06:30:26;;;;;;;6.80;2.60;;;;;;;;;;5035790;28;20059;-82
2024/01/19 06:32:52;;;;;;;9.10;2.47;;;;;;;;;;5036976;28;20398;-82
2024/01/19 06:35:17;;;;;;;5.28;2.50;;;;;;;;;;5033592;28;20037;-81
2024/01/19 06:37:43;;;;;;;9.20;2.50;;;;;;;;;;5031373;28;20790;-81
2024/01/19 06:40:10;;;;;;;9.75;2.65;;;;;;;;;;5038305;28;20485;-82
2024/01/19 06:42:36;;;;;;;7.13;2.35;;;;;;;;;;5035328;28;20037;-81
2024/01/19 06:45:01;;;;;;;6.05;2.40;;;;;;;;;;5036023;28;20044;-81
2024/01/19 06:47:27;;;;;;;7.03;2.60;;;;;;;;;;5025213;28;20060;-82
2024/01/19 06:49:52;;;;;;;8.00;3.13;;;;;;;;;;5035787;28;20095;-81
2024/01/19 06:52:18;;;;;;;8.55;2.78;;;;;;;;;;5018777;28;20489;-83
2024/01/19 06:54:43;;;;;;;9.57;2.88;;;;;;;;;;5037680;28;20511;-82
2024/01/19 06:57:08;;;;;;;6.38;2.30;;;;;;;;;;5036878;28;20033;-82
2024/01/19 06:59:34;;;;;;;8.50;2.55;;;;;;;;;;5038571;28;20034;-82
2024/01/19 07:01:59;;;;;;;7.30;2.65;;;;;;;;;;5020968;28;20030;-82
2024/01/19 07:04:24;;;;;;;6.28;2.72;;;;;;;;;;5030151;28;20041;-80
2024/01/19 07:06:50;;;;;;;7.15;3.13;;;;;;;;;;5039312;28;20072;-80
2024/01/19 07:09:17;;;;;;;5.70;2.35;;;;;;;;;;5039812;28;20041;-80
2024/01/19 07:11:42;;;;;;;8.20;3.00;;;;;;;;;;5037716;28;20025;-80
2024/01/19 07:14:08;;;;;;;6.22;2.78;;;;;;;;;;5037898;28;20378;-81
2024/01/19 07:16:33;;;;;;;7.35;3.05;;;;;;;;;;5035957;28;20040;-80
2024/01/19 07:18:58;;;;;;;7.53;3.13;;;;;;;;;;5021443;28;20048;-80
2024/01/19 07:21:24;;;;;;;6.78;2.78;;;;;;;;;;5039490;28;20029;-80
2024/01/19 07:23:50;;;;;;;7.35;2.75;;;;;;;;;;5038214;28;20036;-79
2024/01/19 07:26:19;;;;;;;10.57;3.30;;;;;;;;;;5027257;28;20109;-80
2024/01/19 07:28:45;;;;;;;7.28;3.17;;;;;;;;;;5037128;28;20425;-80
2024/01/19 07:31:10;;;;;;;9.52;3.25;;;;;;;;;;5021625;28;20033;-80
2024/01/19 07:33:36;;;;;;;8.82;3.42;;;;;;;;;;5034498;28;20048;-82
2024/01/19 07:36:02;;;;;;;6.75;3.08;;;;;;;;;;5038084;28;20075;-81
2024/01/19 07:38:27;;;;;;;7.65;2.97;;;;;;;;;;5024712;28;20065;-81
2024/01/19 07:40:53;;;;;;;9.60;3.30;;;;;;;;;;5037875;28;20049;-81
2024/01/19 07:43:18;;;;;;;9.30;2.97;;;;;;;;;;5023832;28;20029;-81
2024/01/19 07:45:44;;;;;;;8.38;3.28;;;;;;;;;;5037342;28;20048;-82
2024/01/19 07:48:09;;;;;;;8.00;3.28;;;;;;;;;;5038778;28;20083;-81
2024/01/19 07:50:34;;;;;;;8.77;3.45;;;;;;;;;;5023411;28;20451;-82
2024/01/19 07:53:00;;;;;;;8.88;3.83;;;;;;;;;;5026043;28;20103;-80
2024/01/19 07:55:25;;;;;;;8.52;3.88;;;;;;;;;;5038299;28;20041;-81
2024/01/19 07:57:51;;;;;;;7.75;3.95;;;;;;;;;;5036034;28;20041;-81
2024/01/19 08:00:16;;;;;;;13.13;4.00;;;;;;;;;;5035955;28;20041;-81
2024/01/19 08:02:43;;;;;;;8.48;3.42;;;;;;;;;;5026617;28;20033;-81
2024/01/19 08:05:09;;;;;;;8.23;3.72;;;;;;;;;;5043888;28;20030;-81
2024/01/19 08:07:34;;;;;;;8.80;3.90;;;;;;;;;;5042527;28;20033;-81
2024/01/19 08:10:00;;;;;;;8.15;3.83;;;;;;;;;;5035723;28;20044;-82
2024/01/19 08:12:25;;;;;;;8.88;3.95;;;;;;;;;;5035343;28;20057;-81
2024/01/19 08:14:52;;;;;;;7.25;3.80;;;;;;;;;;5019675;28;20045;-80
2024/01/19 08:17:17;;;;;;;10.95;4.07;;;;;;;;;;5020656;28;20033;-80
2024/01/19 08:19:42;;;;;;;11.98;5.20;;;;;;;;;;5019536;28;20469;-80
2024/01/19 08:22:08;;;;;;;8.13;4.07;;;;;;;;;;5035570;28;20036;-81
2024/01/19 08:24:37;;;;;;;8.43;4.18;;;;;;;;;;5036338;28;20041;-80
2024/01/19 08:27:02;;;;;;;8.57;3.90;;;;;;;;;;5031886;28;20397;-80
2024/01/19 08:29:28;;;;;;;10.95;4.05;;;;;;;;;;5037854;28;20037;-82
2024/01/19 08:31:53;;;;;;;8.02;4.22;;;;;;;;;;5042228;28;20033;-82
2024/01/19 08:34:19;;;;;;;7.95;4.43;;;;;;;;;;5034642;28;20037;-81
2024/01/19 08:36:45;;;;;;;8.20;4.18;;;;;;;;;;5034786;28;20037;-81
2024/01/19 08:39:10;;;;;;;10.00;4.57;;;;;;;;;;5028081;28;20043;-80
2024/01/19 08:41:42;;;;;;;11.05;4.78;;;;;;;;;;5035502;28;20029;-82
2024/01/19 08:44:08;;;;;;;9.95;4.78;;;;;;;;;;5036397;28;20044;-82
2024/01/19 08:46:34;;;;;;;9.15;4.50;;;;;;;;;;5031114;28;20045;-81
2024/01/19 08:49:00;;;;;;;10.13;4.45;;;;;;;;;;5018231;28;20033;-81
2024/01/19 08:51:28;;;;;;;9.48;4.88;;;;;;;;;;5032850;28;20942;-82
2024/01/19 08:53:53;;;;;;;10.88;5.55;;;;;;;;;;5040503;28;20037;-81
2024/01/19 08:56:20;;;;;;;13.07;5.38;;;;;;;;;;5033503;28;20037;-81
2024/01/19 08:58:46;;;;;;;10.93;5.03;;;;;;;;;;5036231;28;20543;-81
2024/01/19 09:01:19;;;;;;;10.23;4.68;;;;;;;;;;5036651;28;20124;-80
2024/01/19 09:03:44;;;;;;;11.85;5.25;;;;;;;;;;5036929;28;20040;-81
2024/01/19 09:06:10;;;;;;;13.25;5.20;;;;;;;;;;5033058;28;20033;-82
2024/01/19 09:08:35;;;;;;;9.27;4.93;;;;;;;;;;5034142;28;20044;-81
2024/01/19 09:11:01;;;;;;;10.35;5.13;;;;;;;;;;5033559;28;20044;-81
2024/01/19 09:13:27;;;;;;;14.50;5.38;;;;;;;;;;5034465;28;20516;-80
2024/01/19 09:15:53;;;;;;;9.90;5.15;;;;;;;;;;5033570;28;20060;-80
2024/01/19 09:18:19;;;;;;;10.20;5.40;;;;;;;;;;5031451;28;20026;-80
2024/01/19 09:20:45;;;;;;;12.55;5.30;;;;;;;;;;5031373;28;20033;-80
2024/01/19 09:23:10;;;;;;;11.32;4.93;;;;;;;;;;5035791;28;20448;-81
2024/01/19 09:25:36;;;;;;;10.68;5.45;;;;;;;;;;5037155;28;20041;-81
2024/01/19 09:28:02;;;;;;;11.25;5.68;;;;;;;;;;5034098;28;20037;-80
2024/01/19 09:30:27;;;;;;;9.55;4.55;;;;;;;;;;5036377;28;20040;-81
2024/01/19 09:32:53;;;;;;;9.98;5.57;;;;;;;;;;5019909;28;20068;-82
2024/01/19 09:35:18;;;;;;;10.55;5.32;;;;;;;;;;5034944;28;20396;-81
2024/01/19 09:37:44;;;;;;;9.68;4.90;;;;;;;;;;5019848;28;20033;-82
2024/01/19 09:40:10;;;;;;;9.23;5.18;;;;;;;;;;5037603;28;20112;-79
2024/01/19 09:42:39;;;;;;;9.80;5.10;;;;;;;;;;5022713;28;20037;-79
2024/01/19 09:45:05;;;;;;;9.82;5.63;;;;;;;;;;5027312;28;20079;-81
2024/01/19 09:47:41;;;;;;;9.82;4.90;;;;;;;;;;5037309;28;20049;-80
2024/01/19 09:50:08;;;;;;;10.20;5.50;;;;;;;;;;5038263;28;20108;-80
2024/01/19 09:52:49;;;;;;;11.93;5.40;;;;;;;;;;5019676;28;20220;-81
2024/01/19 09:55:15;;;;;;;10.38;5.05;;;;;;;;;;5035632;28;20120;-80
2024/01/19 09:57:48;;;;;;;10.23;4.88;;;;;;;;;;5019389;28;20029;-82
2024/01/19 10:00:15;;;;;;;11.80;5.13;;;;;;;;;;5033540;28;20380;-81
2024/01/19 10:02:48;;;;;;;12.20;5.28;;;;;;;;;;5036612;28;20029;-80
2024/01/19 10:05:15;;;;;;;13.27;5.00;;;;;;;;;;5032472;28;20388;-81
2024/01/19 10:07:42;;;;;;;10.63;5.18;;;;;;;;;;5035814;28;20040;-82
2024/01/19 10:10:08;;;;;;;11.82;5.45;;;;;;;;;;5036940;28;20099;-80
2024/01/19 10:12:35;;;;;;;10.85;5.07;;;;;;;;;;5034054;28;20630;-81
2024/01/19 10:15:00;;;;;;;11.88;5.72;;;;;;;;;;5030869;28;20040;-82
2024/01/19 10:17:27;;;;;;;8.88;5.05;;;;;;;;;;5032216;28;20553;-80
2024/01/19 10:19:52;;;;;;;10.43;5.68;;;;;;;;;;5017027;28;20039;-80
2024/01/19 10:22:28;;;;;;;8.32;4.68;;;;;;;;;;5035297;28;20133;-80
2024/01/19 10:25:08;;;;;;;9.38;5.13;;;;;;;;;;5032955;28;20559;-82
2024/01/19 10:27:46;;;;;;;9.68;5.38;;;;;;;;;;5029533;28;20045;-81
2024/01/19 10:30:32;;;;;;;10.05;5.13;;;;;;;;;;5034693;28;20132;-82
2024/01/19 10:33:05;;;;;;;12.25;5.53;;;;;;;;;;5003481;28;20038;-82
2024/01/19 10:35:31;;;;;;;12.95;5.38;;;;;;;;;;4984849;28;20390;-81
2024/01/19 10:38:07;;;;;;;10.32;5.65;;;;;;;;;;5005489;28;20041;-80
2024/01/19 10:40:34;;;;;;;10.13;5.68;;;;;;;;;;5004401;28;20056;-80
2024/01/19 10:42:59;;;;;;;12.18;5.32;;;;;;;;;;5005321;28;20030;-81
2024/01/19 10:45:28;;;;;;;9.23;5.15;;;;;;;;;;4990132;28;20045;-78
2024/01/19 10:47:55;;;;;;;12.60;5.28;;;;;;;;;;4990405;28;20112;-81
2024/01/19 10:50:24;;;;;;;9.50;5.40;;;;;;;;;;5006176;28;20038;-78
2024/01/19 10:52:54;;;;;;;11.65;5.45;;;;;;;;;;4989428;28;20037;-80
2024/01/19 10:55:30;;;;;;;9.32;5.05;;;;;;;;;;4984507;28;20414;-80
2024/01/19 10:58:04;;;;;;;9.52;5.32;;;;;;;;;;4988770;28;20459;-81
2024/01/19 11:00:30;;;;;;;10.75;5.18;;;;;;;;;;5006463;28;20374;-79
2024/01/19 11:02:57;;;;;;;9.70;5.03;;;;;;;;;;4983109;28;20026;-78
2024/01/19 11:05:23;;;;;;;12.13;5.50;;;;;;;;;;4970905;28;20046;-80
2024/01/19 11:07:57;;;;;;;8.68;4.65;;;;;;;;;;4989306;28;20330;-80
2024/01/19 11:10:25;;;;;;;12.23;5.03;;;;;;;;;;5017354;28;20068;-80
2024/01/19 11:12:55;;;;;;;10.15;5.05;;;;;;;;;;5037152;28;20041;-80
2024/01/19 11:15:36;;;;;;;9.55;4.80;;;;;;;;;;5045160;28;20038;-80
2024/01/19 11:18:05;;;;;;;9.63;5.00;;;;;;;;;;5034140;28;20043;-80
2024/01/19 11:20:33;;;;;;;8.48;4.22;;;;;;;;;;5035897;28;20145;-79
2024/01/19 11:23:00;;;;;;;12.98;5.03;;;;;;;;;;5035974;28;20048;-80
2024/01/19 11:25:50;;;;;;;7.80;4.37;;;;;;;;;;5026950;28;20115;-79
2024/01/19 11:29:07;;;;;;;8.43;4.75;;;;;;;;;;5036899;28;20036;-79
2024/01/19 11:31:33;;;;;;;;;;;;;;;;;;5014831;28;20037;-81
2024/01/19 11:33:58;;;;;;;9.18;4.10;;;;;;;;;;5040771;28;19931;-78
2024/01/19 11:36:33;;;;;;;8.70;4.25;;;;;;;;;;5035111;28;20037;-80
2024/01/19 11:38:59;;;;;;;9.15;3.92;;;;;;;;;;5036185;28;20048;-79
2024/01/19 11:41:46;;;;;;;8.35;4.15;;;;;;;;;;5036934;28;20120;-79
2024/01/19 11:44:31;;;;;;;;;;;;;;;;;;5039378;28;20037;-79
2024/01/19 11:46:57;;;;;;;8.93;4.13;;;;;;;;;;5036195;28;20003;-78
2024/01/19 11:49:32;;;;;;;9.82;4.13;;;;;;;;;;5034741;28;20152;-79
2024/01/19 11:51:58;;;;;;;5.75;3.40;;;;;;;;;;5035925;28;20038;-78
2024/01/19 11:54:27;;;;;;;7.93;3.45;;;;;;;;;;5034185;28;20033;-82
2024/01/19 11:56:53;;;;;;;8.88;3.83;;;;;;;;;;5036720;28;20037;-81
2024/01/19 11:59:21;;;;;;;8.25;3.25;;;;;;;;;;5020827;28;20508;-81
2024/01/19 12:01:46;;;;;;;10.70;4.00;;;;;;;;;;5033169;28;20037;-78
2024/01/19 12:04:13;;;;;;;6.00;3.35;;;;;;;;;;5036673;28;20040;-81
2024/01/19 12:06:38;;;;;;;10.48;3.67;;;;;;;;;;5043067;28;20116;-83
2024/01/19 12:09:06;;;;;;;7.50;3.42;;;;;;;;;;5042935;28;20120;-80
2024/01/19 12:11:33;;;;;;;8.88;3.65;;;;;;;;;;5024330;28;20043;-79
2024/01/19 12:14:03;;;;;;;11.07;3.33;;;;;;;;;;5034111;28;20041;-80
2024/01/19 12:16:28;;;;;;;10.82;3.55;;;;;;;;;;5018728;28;20037;-81
2024/01/19 12:18:57;;;;;;;8.38;3.75;;;;;;;;;;5020013;28;20029;-81
2024/01/19 12:21:22;;;;;;;9.45;3.85;;;;;;;;;;5032002;28;20544;-82
2024/01/19 12:23:53;;;;;;;10.90;3.78;;;;;;;;;;5037215;28;20064;-79
2024/01/19 12:26:23;;;;;;;8.82;3.65;;;;;;;;;;5036260;28;20033;-81
2024/01/19 12:28:52;;;;;;;8.15;3.83;;;;;;;;;;5036778;28;20060;-80
2024/01/19 12:31:36;;;;;;;8.00;3.60;;;;;;;;;;5034226;28;20579;-81
2024/01/19 12:34:12;;;;;;;12.00;3.90;;;;;;;;;;5036141;28;20044;-79
2024/01/19 12:36:37;;;;;;;10.45;3.50;;;;;;;;;;5020282;28;20083;-80
2024/01/19 12:39:05;;;;;;;8.25;3.28;;;;;;;;;;5032088;28;20489;-83
2024/01/19 12:41:32;;;;;;;10.23;3.83;;;;;;;;;;5035082;28;20098;-80
2024/01/19 12:43:59;;;;;;;6.70;3.35;;;;;;;;;;5037013;28;20455;-81
2024/01/19 12:46:25;;;;;;;9.07;3.57;;;;;;;;;;5009941;28;20045;-80
2024/01/19 12:48:58;;;;;;;9.82;3.85;;;;;;;;;;5026600;28;20283;-82
2024/01/19 12:51:23;;;;;;;8.90;3.75;;;;;;;;;;5033728;28;20106;-82
2024/01/19 12:53:53;;;;;;;8.32;3.55;;;;;;;;;;5018469;28;20072;-80
2024/01/19 12:56:25;;;;;;;8.48;4.20;;;;;;;;;;5032386;28;20029;-81
2024/01/19 12:58:52;;;;;;;11.65;4.03;;;;;;;;;;5043099;28;20124;-80
2024/01/19 13:01:18;;;;;;;10.10;4.00;;;;;;;;;;5021158;28;20045;-80
2024/01/19 13:03:44;;;;;;;7.85;3.80;;;;;;;;;;5034310;28;20036;-80
2024/01/19 13:06:09;;;;;;;10.13;4.55;;;;;;;;;;5037762;28;20362;-83
2024/01/19 13:08:35;;;;;;;10.00;4.32;;;;;;;;;;5031245;28;20471;-79
2024/01/19 13:11:08;;;;;;;14.32;4.90;;;;;;;;;;5035563;28;20373;-81
2024/01/19 13:13:34;;;;;;;9.30;4.60;;;;;;;;;;5050838;28;20040;-81
2024/01/19 13:16:07;;;;;;;12.57;4.28;;;;;;;;;;5030104;28;20031;-81
2024/01/19 13:18:35;;;;;;;15.00;4.97;;;;;;;;;;5023093;28;20155;-81
2024/01/19 13:21:13;;;;;;;;;;;;;;;;;;5041045;28;20044;-79
2024/01/19 13:23:41;;;;;;;8.90;4.30;;;;;;;;;;5023590;28;19923;-82
2024/01/19 13:26:14;;;;;;;9.68;4.80;;;;;;;;;;5003396;28;20044;-81
2024/01/19 13:28:39;;;;;;;12.35;4.65;;;;;;;;;;5035345;28;20072;-80
2024/01/19 13:31:06;;;;;;;9.98;4.93;;;;;;;;;;5018638;28;20083;-79
2024/01/19 13:33:32;;;;;;;11.95;5.13;;;;;;;;;;5024200;28;20778;-81
2024/01/19 13:35:57;;;;;;;9.38;4.95;;;;;;;;;;5026077;28;20029;-80
2024/01/19 13:38:24;;;;;;;9.88;4.93;;;;;;;;;;5035208;28;20488;-82
2024/01/19 13:40:49;;;;;;;9.05;4.93;;;;;;;;;;5033182;28;20033;-79
2024/01/19 13:43:16;;;;;;;12.88;4.80;;;;;;;;;;5035707;28;20030;-80
2024/01/19 13:45:42;;;;;;;11.23;5.00;;;;;;;;;;5024236;28;20033;-81
2024/01/19 13:48:08;;;;;;;13.90;5.10;;;;;;;;;;5034642;28;20108;-81
2024/01/19 13:50:33;;;;;;;12.85;5.57;;;;;;;;;;5041402;28;20180;-80
2024/01/19 13:52:59;;;;;;;8.77;5.05;;;;;;;;;;5022279;28;20076;-79
2024/01/19 13:55:27;;;;;;;10.95;5.10;;;;;;;;;;5016920;28;20045;-78
2024/01/19 13:57:52;;;;;;;10.82;5.20;;;;;;;;;;5016942;28;20447;-80
2024/01/19 14:00:18;;;;;;;10.80;5.00;;;;;;;;;;5032744;28;20044;-80
2024/01/19 14:02:43;;;;;;;11.95;5.22;;;;;;;;;;5035720;28;20638;-81
2024/01/19 14:05:09;;;;;;;11.20;5.50;;;;;;;;;;5031673;28;20032;-80
2024/01/19 14:07:34;;;;;;;9.57;5.35;;;;;;;;;;5037515;28;20445;-82
2024/01/19 14:10:00;;;;;;;13.90;5.75;;;;;;;;;;5038905;28;20029;-79
2024/01/19 14:12:26;;;;;;;9.77;5.55;;;;;;;;;;5036607;28;20143;-80
2024/01/19 14:14:52;;;;;;;10.75;5.35;;;;;;;;;;5036102;28;20111;-80
2024/01/19 14:17:17;;;;;;;12.20;5.65;;;;;;;;;;5036018;28;20509;-80
2024/01/19 14:19:43;;;;;;;11.15;5.32;;;;;;;;;;5038559;28;20037;-81
2024/01/19 14:22:08;;;;;;;9.63;5.43;;;;;;;;;;5013993;28;20396;-78
2024/01/19 14:24:34;;;;;;;12.10;5.45;;;;;;;;;;5010638;28;20037;-79
2024/01/19 14:26:59;;;;;;;11.40;5.82;;;;;;;;;;5040293;28;20040;-81
2024/01/19 14:29:25;;;;;;;9.75;5.28;;;;;;;;;;5027563;28;20183;-81
2024/01/19 14:31:50;;;;;;;13.00;5.72;;;;;;;;;;5038183;28;20079;-80
2024/01/19 14:34:16;;;;;;;10.18;5.45;;;;;;;;;;5046295;28;20072;-81